sensor_id;sensor_type;location;lat;lon;timestamp;P1;durP1;ratioP1;P2;durP2;ratioP2
53253;SDS011;39148;53.332;6.922;2023-01-25T00:01:46;12.52;;;10.40;;
53253;SDS011;39148;53.332;6.922;2023-01-25T00:04:12;12.20;;;10.18;;
53253;SDS011;39148;53.332;6.922;2023-01-25T00:06:38;13.82;;;10.77;;
53253;SDS011;39148;53.332;6.922;2023-01-25T00:09:04;13.07;;;11.23;;
53253;SDS011;39148;53.332;6.922;2023-01-25T00:11:30;13.48;;;11.43;;
53253;SDS011;39148;53.332;6.922;2023-01-25T00:13:56;12.82;;;10.65;;
53253;SDS011;39148;53.332;6.922;2023-01-25T00:16:22;13.80;;;11.73;;
53253;SDS011;39148;53.332;6.922;2023-01-25T00:18:49;13.13;;;11.10;;
53253;SDS011;39148;53.332;6.922;2023-01-25T00:21:19;13.77;;;11.13;;
53253;SDS011;39148;53.332;6.922;2023-01-25T00:23:46;13.75;;;11.68;;
53253;SDS011;39148;53.332;6.922;2023-01-25T00:26:12;15.43;;;11.35;;
53253;SDS011;39148;53.332;6.922;2023-01-25T00:28:38;13.63;;;11.23;;
53253;SDS011;39148;53.332;6.922;2023-01-25T00:31:05;13.95;;;11.55;;
53253;SDS011;39148;53.332;6.922;2023-01-25T00:33:49;13.98;;;11.93;;
53253;SDS011;39148;53.332;6.922;2023-01-25T00:38:51;14.05;;;11.50;;
53253;SDS011;39148;53.332;6.922;2023-01-25T00:41:18;14.38;;;11.95;;
53253;SDS011;39148;53.332;6.922;2023-01-25T00:43:44;14.95;;;11.90;;
53253;SDS011;39148;53.332;6.922;2023-01-25T00:46:13;13.45;;;11.18;;
53253;SDS011;39148;53.332;6.922;2023-01-25T00:48:39;14.18;;;11.13;;
53253;SDS011;39148;53.332;6.922;2023-01-25T00:51:05;13.52;;;11.13;;
53253;SDS011;39148;53.332;6.922;2023-01-25T00:53:31;14.65;;;12.23;;
53253;SDS011;39148;53.332;6.922;2023-01-25T00:55:57;13.00;;;11.13;;
53253;SDS011;39148;53.332;6.922;2023-01-25T00:58:23;13.88;;;11.15;;
53253;SDS011;39148;53.332;6.922;2023-01-25T01:00:50;13.70;;;11.40;;
53253;SDS011;39148;53.332;6.922;2023-01-25T01:03:16;14.93;;;11.60;;
53253;SDS011;39148;53.332;6.922;2023-01-25T01:05:42;15.30;;;12.20;;
53253;SDS011;39148;53.332;6.922;2023-01-25T01:08:08;13.55;;;11.85;;
53253;SDS011;39148;53.332;6.922;2023-01-25T01:10:34;13.70;;;11.35;;
53253;SDS011;39148;53.332;6.922;2023-01-25T01:13:00;15.57;;;12.55;;
53253;SDS011;39148;53.332;6.922;2023-01-25T01:15:26;14.02;;;11.80;;
53253;SDS011;39148;53.332;6.922;2023-01-25T01:17:52;13.25;;;10.93;;
53253;SDS011;39148;53.332;6.922;2023-01-25T01:20:18;14.77;;;12.18;;
53253;SDS011;39148;53.332;6.922;2023-01-25T01:22:44;13.90;;;11.48;;
53253;SDS011;39148;53.332;6.922;2023-01-25T01:25:10;13.95;;;11.57;;
53253;SDS011;39148;53.332;6.922;2023-01-25T01:27:37;14.10;;;11.23;;
53253;SDS011;39148;53.332;6.922;2023-01-25T01:30:04;14.70;;;11.60;;
53253;SDS011;39148;53.332;6.922;2023-01-25T01:32:30;14.18;;;11.88;;
53253;SDS011;39148;53.332;6.922;2023-01-25T01:34:56;14.55;;;11.65;;
53253;SDS011;39148;53.332;6.922;2023-01-25T01:37:21;14.07;;;11.40;;
53253;SDS011;39148;53.332;6.922;2023-01-25T01:39:47;13.75;;;11.50;;
53253;SDS011;39148;53.332;6.922;2023-01-25T01:42:13;14.93;;;12.10;;
53253;SDS011;39148;53.332;6.922;2023-01-25T01:44:57;13.88;;;11.10;;
53253;SDS011;39148;53.332;6.922;2023-01-25T01:47:24;14.95;;;11.85;;
53253;SDS011;39148;53.332;6.922;2023-01-25T01:52:22;14.95;;;11.95;;
53253;SDS011;39148;53.332;6.922;2023-01-25T01:54:54;14.15;;;11.32;;
53253;SDS011;39148;53.332;6.922;2023-01-25T01:57:25;14.25;;;11.45;;
53253;SDS011;39148;53.332;6.922;2023-01-25T01:59:56;15.00;;;11.93;;
53253;SDS011;39148;53.332;6.922;2023-01-25T02:02:29;14.52;;;11.82;;
53253;SDS011;39148;53.332;6.922;2023-01-25T02:04:57;15.05;;;12.00;;
53253;SDS011;39148;53.332;6.922;2023-01-25T02:07:34;15.55;;;12.20;;
53253;SDS011;39148;53.332;6.922;2023-01-25T02:10:02;15.07;;;12.23;;
53253;SDS011;39148;53.332;6.922;2023-01-25T02:12:29;15.30;;;12.75;;
53253;SDS011;39148;53.332;6.922;2023-01-25T02:14:55;15.65;;;13.27;;
53253;SDS011;39148;53.332;6.922;2023-01-25T02:17:32;15.90;;;12.55;;
53253;SDS011;39148;53.332;6.922;2023-01-25T02:22:37;15.88;;;12.90;;
53253;SDS011;39148;53.332;6.922;2023-01-25T02:25:07;15.90;;;12.73;;
53253;SDS011;39148;53.332;6.922;2023-01-25T02:27:33;15.88;;;12.93;;
53253;SDS011;39148;53.332;6.922;2023-01-25T02:30:02;15.68;;;12.43;;
53253;SDS011;39148;53.332;6.922;2023-01-25T02:32:28;16.15;;;13.07;;
53253;SDS011;39148;53.332;6.922;2023-01-25T02:34:55;14.30;;;12.02;;
53253;SDS011;39148;53.332;6.922;2023-01-25T02:37:21;16.33;;;13.60;;
53253;SDS011;39148;53.332;6.922;2023-01-25T02:39:47;16.58;;;13.45;;
53253;SDS011;39148;53.332;6.922;2023-01-25T02:42:13;16.17;;;12.68;;
53253;SDS011;39148;53.332;6.922;2023-01-25T02:44:39;16.95;;;13.50;;
53253;SDS011;39148;53.332;6.922;2023-01-25T02:47:07;15.70;;;13.23;;
53253;SDS011;39148;53.332;6.922;2023-01-25T02:49:34;17.65;;;14.25;;
53253;SDS011;39148;53.332;6.922;2023-01-25T02:52:00;17.08;;;13.50;;
53253;SDS011;39148;53.332;6.922;2023-01-25T02:54:27;17.50;;;13.82;;
53253;SDS011;39148;53.332;6.922;2023-01-25T02:56:53;17.55;;;13.98;;
53253;SDS011;39148;53.332;6.922;2023-01-25T02:59:19;17.92;;;14.13;;
53253;SDS011;39148;53.332;6.922;2023-01-25T03:01:46;17.95;;;13.88;;
53253;SDS011;39148;53.332;6.922;2023-01-25T03:04:12;17.50;;;14.18;;
53253;SDS011;39148;53.332;6.922;2023-01-25T03:06:38;16.88;;;13.75;;
53253;SDS011;39148;53.332;6.922;2023-01-25T03:09:05;16.65;;;13.70;;
53253;SDS011;39148;53.332;6.922;2023-01-25T03:11:31;17.73;;;14.55;;
53253;SDS011;39148;53.332;6.922;2023-01-25T03:13:58;16.73;;;13.70;;
53253;SDS011;39148;53.332;6.922;2023-01-25T03:16:24;18.23;;;14.60;;
53253;SDS011;39148;53.332;6.922;2023-01-25T03:18:53;18.35;;;14.75;;
53253;SDS011;39148;53.332;6.922;2023-01-25T03:21:20;18.25;;;14.88;;
53253;SDS011;39148;53.332;6.922;2023-01-25T03:23:47;17.75;;;14.70;;
53253;SDS011;39148;53.332;6.922;2023-01-25T03:26:19;17.77;;;14.25;;
53253;SDS011;39148;53.332;6.922;2023-01-25T03:28:46;19.88;;;15.20;;
53253;SDS011;39148;53.332;6.922;2023-01-25T03:31:13;17.63;;;14.45;;
53253;SDS011;39148;53.332;6.922;2023-01-25T03:33:39;18.70;;;15.10;;
53253;SDS011;39148;53.332;6.922;2023-01-25T03:36:05;18.08;;;15.07;;
53253;SDS011;39148;53.332;6.922;2023-01-25T03:38:32;17.58;;;14.70;;
53253;SDS011;39148;53.332;6.922;2023-01-25T03:40:59;19.52;;;15.68;;
53253;SDS011;39148;53.332;6.922;2023-01-25T03:43:25;19.85;;;16.40;;
53253;SDS011;39148;53.332;6.922;2023-01-25T03:45:52;19.45;;;15.40;;
53253;SDS011;39148;53.332;6.922;2023-01-25T03:48:18;20.10;;;15.77;;
53253;SDS011;39148;53.332;6.922;2023-01-25T03:50:48;19.35;;;16.05;;
53253;SDS011;39148;53.332;6.922;2023-01-25T03:53:19;19.98;;;16.67;;
53253;SDS011;39148;53.332;6.922;2023-01-25T03:55:55;21.98;;;16.95;;
53253;SDS011;39148;53.332;6.922;2023-01-25T03:58:21;19.88;;;16.17;;
53253;SDS011;39148;53.332;6.922;2023-01-25T04:00:47;21.25;;;17.38;;
53253;SDS011;39148;53.332;6.922;2023-01-25T04:03:13;20.98;;;16.95;;
53253;SDS011;39148;53.332;6.922;2023-01-25T04:05:41;21.00;;;17.42;;
53253;SDS011;39148;53.332;6.922;2023-01-25T04:08:07;18.77;;;15.27;;
53253;SDS011;39148;53.332;6.922;2023-01-25T04:10:33;20.67;;;15.98;;
53253;SDS011;39148;53.332;6.922;2023-01-25T04:12:59;21.45;;;16.52;;
53253;SDS011;39148;53.332;6.922;2023-01-25T04:15:25;22.45;;;17.50;;
53253;SDS011;39148;53.332;6.922;2023-01-25T04:17:51;21.27;;;16.85;;
53253;SDS011;39148;53.332;6.922;2023-01-25T04:20:17;21.95;;;17.23;;
53253;SDS011;39148;53.332;6.922;2023-01-25T04:22:43;22.45;;;17.63;;
53253;SDS011;39148;53.332;6.922;2023-01-25T04:25:09;20.80;;;16.77;;
53253;SDS011;39148;53.332;6.922;2023-01-25T04:27:35;22.83;;;17.70;;
53253;SDS011;39148;53.332;6.922;2023-01-25T04:30:01;21.42;;;17.38;;
53253;SDS011;39148;53.332;6.922;2023-01-25T04:32:27;22.88;;;18.13;;
53253;SDS011;39148;53.332;6.922;2023-01-25T04:34:53;21.48;;;17.52;;
53253;SDS011;39148;53.332;6.922;2023-01-25T04:37:19;21.83;;;17.02;;
53253;SDS011;39148;53.332;6.922;2023-01-25T04:39:46;22.77;;;18.05;;
53253;SDS011;39148;53.332;6.922;2023-01-25T04:42:12;21.33;;;17.55;;
53253;SDS011;39148;53.332;6.922;2023-01-25T04:44:38;21.08;;;17.60;;
53253;SDS011;39148;53.332;6.922;2023-01-25T04:47:04;21.90;;;17.50;;
53253;SDS011;39148;53.332;6.922;2023-01-25T04:49:29;22.45;;;17.70;;
53253;SDS011;39148;53.332;6.922;2023-01-25T04:51:55;22.92;;;17.90;;
53253;SDS011;39148;53.332;6.922;2023-01-25T04:54:22;22.65;;;17.70;;
53253;SDS011;39148;53.332;6.922;2023-01-25T04:56:48;22.38;;;17.73;;
53253;SDS011;39148;53.332;6.922;2023-01-25T04:59:14;22.38;;;17.85;;
53253;SDS011;39148;53.332;6.922;2023-01-25T05:01:40;22.52;;;18.05;;
53253;SDS011;39148;53.332;6.922;2023-01-25T05:04:06;23.00;;;18.10;;
53253;SDS011;39148;53.332;6.922;2023-01-25T05:06:32;24.17;;;18.17;;
53253;SDS011;39148;53.332;6.922;2023-01-25T05:08:58;22.10;;;17.75;;
53253;SDS011;39148;53.332;6.922;2023-01-25T05:11:24;21.65;;;17.00;;
53253;SDS011;39148;53.332;6.922;2023-01-25T05:13:50;23.00;;;17.88;;
53253;SDS011;39148;53.332;6.922;2023-01-25T05:16:18;23.75;;;18.55;;
53253;SDS011;39148;53.332;6.922;2023-01-25T05:18:44;23.10;;;17.92;;
53253;SDS011;39148;53.332;6.922;2023-01-25T05:21:10;22.45;;;17.88;;
53253;SDS011;39148;53.332;6.922;2023-01-25T05:23:57;23.75;;;18.52;;
53253;SDS011;39148;53.332;6.922;2023-01-25T05:26:23;22.60;;;18.25;;
53253;SDS011;39148;53.332;6.922;2023-01-25T05:29:08;22.40;;;17.88;;
53253;SDS011;39148;53.332;6.922;2023-01-25T05:31:35;22.80;;;17.92;;
53253;SDS011;39148;53.332;6.922;2023-01-25T05:34:01;23.92;;;18.20;;
53253;SDS011;39148;53.332;6.922;2023-01-25T05:36:27;23.38;;;18.40;;
53253;SDS011;39148;53.332;6.922;2023-01-25T05:38:53;23.52;;;18.63;;
53253;SDS011;39148;53.332;6.922;2023-01-25T05:41:19;23.42;;;17.77;;
53253;SDS011;39148;53.332;6.922;2023-01-25T05:43:48;25.45;;;18.88;;
53253;SDS011;39148;53.332;6.922;2023-01-25T05:46:14;23.83;;;18.90;;
53253;SDS011;39148;53.332;6.922;2023-01-25T05:48:39;25.17;;;19.40;;
53253;SDS011;39148;53.332;6.922;2023-01-25T05:51:05;23.45;;;18.92;;
53253;SDS011;39148;53.332;6.922;2023-01-25T05:53:31;24.77;;;19.00;;
53253;SDS011;39148;53.332;6.922;2023-01-25T05:56:07;24.35;;;19.83;;
53253;SDS011;39148;53.332;6.922;2023-01-25T05:58:35;25.33;;;19.85;;
53253;SDS011;39148;53.332;6.922;2023-01-25T06:01:02;24.60;;;19.92;;
53253;SDS011;39148;53.332;6.922;2023-01-25T06:03:29;23.75;;;18.50;;
53253;SDS011;39148;53.332;6.922;2023-01-25T06:05:58;26.67;;;19.83;;
53253;SDS011;39148;53.332;6.922;2023-01-25T06:08:29;26.13;;;19.98;;
53253;SDS011;39148;53.332;6.922;2023-01-25T06:10:55;25.17;;;19.70;;
53253;SDS011;39148;53.332;6.922;2023-01-25T06:13:22;27.65;;;20.55;;
53253;SDS011;39148;53.332;6.922;2023-01-25T06:15:51;26.73;;;20.15;;
53253;SDS011;39148;53.332;6.922;2023-01-25T06:18:17;28.67;;;21.08;;
53253;SDS011;39148;53.332;6.922;2023-01-25T06:20:44;26.67;;;21.02;;
53253;SDS011;39148;53.332;6.922;2023-01-25T06:23:10;28.08;;;22.00;;
53253;SDS011;39148;53.332;6.922;2023-01-25T06:25:36;29.15;;;20.90;;
53253;SDS011;39148;53.332;6.922;2023-01-25T06:28:02;29.23;;;21.55;;
53253;SDS011;39148;53.332;6.922;2023-01-25T06:30:28;27.85;;;21.27;;
53253;SDS011;39148;53.332;6.922;2023-01-25T06:32:56;28.52;;;21.35;;
53253;SDS011;39148;53.332;6.922;2023-01-25T06:35:22;29.95;;;22.45;;
53253;SDS011;39148;53.332;6.922;2023-01-25T06:37:48;29.60;;;21.60;;
53253;SDS011;39148;53.332;6.922;2023-01-25T06:40:14;30.85;;;22.55;;
53253;SDS011;39148;53.332;6.922;2023-01-25T06:42:41;30.02;;;22.45;;
53253;SDS011;39148;53.332;6.922;2023-01-25T06:45:07;30.08;;;22.52;;
53253;SDS011;39148;53.332;6.922;2023-01-25T06:47:34;30.77;;;22.75;;
53253;SDS011;39148;53.332;6.922;2023-01-25T06:50:00;32.60;;;24.05;;
53253;SDS011;39148;53.332;6.922;2023-01-25T06:52:26;31.80;;;23.88;;
53253;SDS011;39148;53.332;6.922;2023-01-25T06:54:52;31.48;;;23.95;;
53253;SDS011;39148;53.332;6.922;2023-01-25T06:57:17;31.17;;;22.75;;
53253;SDS011;39148;53.332;6.922;2023-01-25T06:59:43;30.88;;;23.13;;
53253;SDS011;39148;53.332;6.922;2023-01-25T07:02:15;31.17;;;22.63;;
53253;SDS011;39148;53.332;6.922;2023-01-25T07:04:44;32.28;;;23.83;;
53253;SDS011;39148;53.332;6.922;2023-01-25T07:07:10;33.40;;;24.23;;
53253;SDS011;39148;53.332;6.922;2023-01-25T07:09:36;33.25;;;25.15;;
53253;SDS011;39148;53.332;6.922;2023-01-25T07:12:02;31.35;;;23.25;;
53253;SDS011;39148;53.332;6.922;2023-01-25T07:14:31;34.03;;;23.92;;
53253;SDS011;39148;53.332;6.922;2023-01-25T07:16:58;32.45;;;23.25;;
53253;SDS011;39148;53.332;6.922;2023-01-25T07:19:24;31.73;;;23.60;;
53253;SDS011;39148;53.332;6.922;2023-01-25T07:21:50;32.95;;;24.38;;
53253;SDS011;39148;53.332;6.922;2023-01-25T07:24:16;32.40;;;24.17;;
53253;SDS011;39148;53.332;6.922;2023-01-25T07:26:43;36.28;;;25.67;;
53253;SDS011;39148;53.332;6.922;2023-01-25T07:29:13;33.38;;;23.58;;
53253;SDS011;39148;53.332;6.922;2023-01-25T07:31:40;32.60;;;24.48;;
53253;SDS011;39148;53.332;6.922;2023-01-25T07:34:08;34.10;;;25.67;;
53253;SDS011;39148;53.332;6.922;2023-01-25T07:36:35;31.98;;;23.98;;
53253;SDS011;39148;53.332;6.922;2023-01-25T07:39:01;33.03;;;24.92;;
53253;SDS011;39148;53.332;6.922;2023-01-25T07:41:27;34.13;;;25.02;;
53253;SDS011;39148;53.332;6.922;2023-01-25T07:43:53;34.70;;;25.13;;
53253;SDS011;39148;53.332;6.922;2023-01-25T07:46:20;35.38;;;25.58;;
53253;SDS011;39148;53.332;6.922;2023-01-25T07:48:48;35.63;;;25.67;;
53253;SDS011;39148;53.332;6.922;2023-01-25T07:51:14;37.20;;;26.52;;
53253;SDS011;39148;53.332;6.922;2023-01-25T07:53:47;35.55;;;25.73;;
53253;SDS011;39148;53.332;6.922;2023-01-25T07:56:15;34.42;;;25.67;;
53253;SDS011;39148;53.332;6.922;2023-01-25T07:58:41;36.50;;;25.25;;
53253;SDS011;39148;53.332;6.922;2023-01-25T08:01:14;35.55;;;26.00;;
53253;SDS011;39148;53.332;6.922;2023-01-25T08:03:40;36.75;;;26.60;;
53253;SDS011;39148;53.332;6.922;2023-01-25T08:06:07;37.00;;;26.83;;
53253;SDS011;39148;53.332;6.922;2023-01-25T08:08:35;37.45;;;26.92;;
53253;SDS011;39148;53.332;6.922;2023-01-25T08:11:12;35.92;;;26.90;;
53253;SDS011;39148;53.332;6.922;2023-01-25T08:13:39;36.40;;;26.48;;
53253;SDS011;39148;53.332;6.922;2023-01-25T08:16:06;39.28;;;28.00;;
53253;SDS011;39148;53.332;6.922;2023-01-25T08:18:32;36.35;;;26.92;;
53253;SDS011;39148;53.332;6.922;2023-01-25T08:20:58;37.42;;;26.67;;
53253;SDS011;39148;53.332;6.922;2023-01-25T08:23:25;37.80;;;26.98;;
53253;SDS011;39148;53.332;6.922;2023-01-25T08:25:51;35.00;;;25.88;;
53253;SDS011;39148;53.332;6.922;2023-01-25T08:28:17;35.38;;;25.92;;
53253;SDS011;39148;53.332;6.922;2023-01-25T08:30:43;34.88;;;25.88;;
53253;SDS011;39148;53.332;6.922;2023-01-25T08:33:09;36.72;;;27.02;;
53253;SDS011;39148;53.332;6.922;2023-01-25T08:35:35;34.08;;;25.80;;
53253;SDS011;39148;53.332;6.922;2023-01-25T08:38:01;36.17;;;27.35;;
53253;SDS011;39148;53.332;6.922;2023-01-25T08:40:27;37.97;;;27.15;;
53253;SDS011;39148;53.332;6.922;2023-01-25T08:42:54;33.70;;;25.95;;
53253;SDS011;39148;53.332;6.922;2023-01-25T08:45:20;36.35;;;27.00;;
53253;SDS011;39148;53.332;6.922;2023-01-25T08:47:46;36.95;;;25.90;;
53253;SDS011;39148;53.332;6.922;2023-01-25T08:50:12;33.70;;;25.38;;
53253;SDS011;39148;53.332;6.922;2023-01-25T08:52:38;35.65;;;26.55;;
53253;SDS011;39148;53.332;6.922;2023-01-25T08:55:04;35.05;;;25.83;;
53253;SDS011;39148;53.332;6.922;2023-01-25T08:57:30;35.25;;;25.35;;
53253;SDS011;39148;53.332;6.922;2023-01-25T08:59:56;35.53;;;25.52;;
53253;SDS011;39148;53.332;6.922;2023-01-25T09:02:23;35.85;;;25.92;;
53253;SDS011;39148;53.332;6.922;2023-01-25T09:04:49;34.60;;;25.13;;
53253;SDS011;39148;53.332;6.922;2023-01-25T09:07:15;33.60;;;25.02;;
53253;SDS011;39148;53.332;6.922;2023-01-25T09:09:41;33.85;;;24.52;;
53253;SDS011;39148;53.332;6.922;2023-01-25T09:12:08;34.00;;;25.05;;
53253;SDS011;39148;53.332;6.922;2023-01-25T09:14:34;32.88;;;24.48;;
53253;SDS011;39148;53.332;6.922;2023-01-25T09:17:01;33.13;;;23.95;;
53253;SDS011;39148;53.332;6.922;2023-01-25T09:19:27;33.10;;;24.65;;
53253;SDS011;39148;53.332;6.922;2023-01-25T09:21:53;35.00;;;25.65;;
53253;SDS011;39148;53.332;6.922;2023-01-25T09:24:19;34.80;;;24.98;;
53253;SDS011;39148;53.332;6.922;2023-01-25T09:26:45;32.83;;;24.67;;
53253;SDS011;39148;53.332;6.922;2023-01-25T09:29:11;33.80;;;24.25;;
53253;SDS011;39148;53.332;6.922;2023-01-25T09:31:38;32.38;;;23.90;;
53253;SDS011;39148;53.332;6.922;2023-01-25T09:34:07;33.35;;;23.83;;
53253;SDS011;39148;53.332;6.922;2023-01-25T09:36:34;32.13;;;24.75;;
53253;SDS011;39148;53.332;6.922;2023-01-25T09:39:00;32.00;;;23.63;;
53253;SDS011;39148;53.332;6.922;2023-01-25T09:49:12;32.28;;;24.27;;
53253;SDS011;39148;53.332;6.922;2023-01-25T09:51:48;30.13;;;22.77;;
53253;SDS011;39148;53.332;6.922;2023-01-25T09:54:17;30.92;;;23.73;;
53253;SDS011;39148;53.332;6.922;2023-01-25T09:56:43;31.55;;;22.85;;
53253;SDS011;39148;53.332;6.922;2023-01-25T09:59:13;30.75;;;23.17;;
53253;SDS011;39148;53.332;6.922;2023-01-25T10:01:45;29.23;;;21.85;;
53253;SDS011;39148;53.332;6.922;2023-01-25T10:04:17;32.28;;;22.23;;
53253;SDS011;39148;53.332;6.922;2023-01-25T10:06:45;29.67;;;22.70;;
53253;SDS011;39148;53.332;6.922;2023-01-25T10:09:17;28.55;;;21.10;;
53253;SDS011;39148;53.332;6.922;2023-01-25T10:11:45;28.33;;;21.88;;
53253;SDS011;39148;53.332;6.922;2023-01-25T10:14:12;28.58;;;21.63;;
53253;SDS011;39148;53.332;6.922;2023-01-25T10:22:04;28.50;;;21.83;;
53253;SDS011;39148;53.332;6.922;2023-01-25T10:27:08;27.77;;;20.48;;
53253;SDS011;39148;53.332;6.922;2023-01-25T10:29:35;27.05;;;20.70;;
53253;SDS011;39148;53.332;6.922;2023-01-25T10:34:46;27.30;;;21.50;;
53253;SDS011;39148;53.332;6.922;2023-01-25T10:37:14;26.40;;;21.20;;
53253;SDS011;39148;53.332;6.922;2023-01-25T10:39:43;26.02;;;20.63;;
53253;SDS011;39148;53.332;6.922;2023-01-25T10:42:36;27.52;;;21.55;;
53253;SDS011;39148;53.332;6.922;2023-01-25T10:47:30;27.85;;;21.42;;
53253;SDS011;39148;53.332;6.922;2023-01-25T10:49:58;28.20;;;21.83;;
53253;SDS011;39148;53.332;6.922;2023-01-25T10:57:31;30.38;;;21.55;;
53253;SDS011;39148;53.332;6.922;2023-01-25T10:59:59;28.23;;;22.05;;
53253;SDS011;39148;53.332;6.922;2023-01-25T11:04:52;25.90;;;20.38;;
53253;SDS011;39148;53.332;6.922;2023-01-25T11:07:25;27.25;;;21.00;;
53253;SDS011;39148;53.332;6.922;2023-01-25T11:09:53;27.05;;;21.23;;
53253;SDS011;39148;53.332;6.922;2023-01-25T11:12:19;28.88;;;21.55;;
53253;SDS011;39148;53.332;6.922;2023-01-25T11:14:46;28.65;;;21.67;;
53253;SDS011;39148;53.332;6.922;2023-01-25T11:17:25;28.33;;;21.48;;
53253;SDS011;39148;53.332;6.922;2023-01-25T11:20:05;27.38;;;20.77;;
53253;SDS011;39148;53.332;6.922;2023-01-25T11:22:32;27.13;;;21.27;;
53253;SDS011;39148;53.332;6.922;2023-01-25T11:24:58;26.85;;;20.67;;
53253;SDS011;39148;53.332;6.922;2023-01-25T11:27:24;28.83;;;20.80;;
53253;SDS011;39148;53.332;6.922;2023-01-25T11:32:30;27.95;;;20.35;;
53253;SDS011;39148;53.332;6.922;2023-01-25T11:34:56;27.10;;;20.13;;
53253;SDS011;39148;53.332;6.922;2023-01-25T11:40:12;27.00;;;20.70;;
53253;SDS011;39148;53.332;6.922;2023-01-25T11:50:19;29.15;;;20.33;;
53253;SDS011;39148;53.332;6.922;2023-01-25T12:08:30;27.13;;;19.30;;
53253;SDS011;39148;53.332;6.922;2023-01-25T12:29:51;27.13;;;19.55;;
53253;SDS011;39148;53.332;6.922;2023-01-25T12:35:02;27.25;;;20.05;;
53253;SDS011;39148;53.332;6.922;2023-01-25T12:37:31;28.00;;;19.95;;
53253;SDS011;39148;53.332;6.922;2023-01-25T12:40:04;28.10;;;19.50;;
53253;SDS011;39148;53.332;6.922;2023-01-25T12:42:39;27.42;;;18.27;;
53253;SDS011;39148;53.332;6.922;2023-01-25T12:45:14;26.60;;;18.38;;
53253;SDS011;39148;53.332;6.922;2023-01-25T12:47:43;25.73;;;18.45;;
53253;SDS011;39148;53.332;6.922;2023-01-25T12:55:31;27.50;;;18.95;;
53253;SDS011;39148;53.332;6.922;2023-01-25T12:58:03;27.60;;;18.52;;
53253;SDS011;39148;53.332;6.922;2023-01-25T13:00:39;27.85;;;18.95;;
53253;SDS011;39148;53.332;6.922;2023-01-25T13:08:43;26.15;;;18.20;;
53253;SDS011;39148;53.332;6.922;2023-01-25T13:11:14;28.83;;;19.80;;
53253;SDS011;39148;53.332;6.922;2023-01-25T13:13:41;25.83;;;18.25;;
53253;SDS011;39148;53.332;6.922;2023-01-25T13:16:24;27.23;;;19.33;;
53253;SDS011;39148;53.332;6.922;2023-01-25T13:18:56;27.08;;;19.23;;
53253;SDS011;39148;53.332;6.922;2023-01-25T13:25:05;28.20;;;18.65;;
53253;SDS011;39148;53.332;6.922;2023-01-25T13:32:12;28.65;;;19.13;;
53253;SDS011;39148;53.332;6.922;2023-01-25T13:34:54;28.15;;;18.50;;
53253;SDS011;39148;53.332;6.922;2023-01-25T13:37:24;25.90;;;17.10;;
53253;SDS011;39148;53.332;6.922;2023-01-25T13:40:26;27.30;;;17.70;;
53253;SDS011;39148;53.332;6.922;2023-01-25T13:43:33;25.60;;;17.08;;
53253;SDS011;39148;53.332;6.922;2023-01-25T13:45:40;25.08;;;17.85;;
53253;SDS011;39148;53.332;6.922;2023-01-25T13:48:11;26.55;;;17.58;;
53253;SDS011;39148;53.332;6.922;2023-01-25T13:50:42;27.05;;;18.75;;
53253;SDS011;39148;53.332;6.922;2023-01-25T13:55:42;27.50;;;18.02;;
53253;SDS011;39148;53.332;6.922;2023-01-25T13:58:09;26.80;;;17.90;;
53253;SDS011;39148;53.332;6.922;2023-01-25T14:00:35;28.08;;;18.30;;
53253;SDS011;39148;53.332;6.922;2023-01-25T14:03:03;29.05;;;19.15;;
53253;SDS011;39148;53.332;6.922;2023-01-25T14:05:30;26.38;;;17.95;;
53253;SDS011;39148;53.332;6.922;2023-01-25T14:07:56;27.92;;;18.30;;
53253;SDS011;39148;53.332;6.922;2023-01-25T14:10:23;26.02;;;17.75;;
53253;SDS011;39148;53.332;6.922;2023-01-25T14:12:50;28.48;;;17.58;;
53253;SDS011;39148;53.332;6.922;2023-01-25T14:15:20;27.35;;;17.48;;
53253;SDS011;39148;53.332;6.922;2023-01-25T14:18:02;25.85;;;17.52;;
53253;SDS011;39148;53.332;6.922;2023-01-25T14:20:29;25.55;;;17.05;;
53253;SDS011;39148;53.332;6.922;2023-01-25T14:22:55;25.05;;;16.83;;
53253;SDS011;39148;53.332;6.922;2023-01-25T14:25:21;26.75;;;16.95;;
53253;SDS011;39148;53.332;6.922;2023-01-25T14:27:53;28.10;;;17.83;;
53253;SDS011;39148;53.332;6.922;2023-01-25T14:30:27;27.38;;;17.58;;
53253;SDS011;39148;53.332;6.922;2023-01-25T14:32:54;28.38;;;16.52;;
53253;SDS011;39148;53.332;6.922;2023-01-25T14:37:50;27.05;;;17.00;;
53253;SDS011;39148;53.332;6.922;2023-01-25T14:40:18;26.50;;;17.42;;
53253;SDS011;39148;53.332;6.922;2023-01-25T14:42:46;25.83;;;17.00;;
53253;SDS011;39148;53.332;6.922;2023-01-25T14:45:12;28.92;;;16.92;;
53253;SDS011;39148;53.332;6.922;2023-01-25T14:47:39;27.05;;;17.73;;
53253;SDS011;39148;53.332;6.922;2023-01-25T14:52:50;28.40;;;17.85;;
53253;SDS011;39148;53.332;6.922;2023-01-25T14:55:15;29.65;;;18.00;;
53253;SDS011;39148;53.332;6.922;2023-01-25T14:57:42;27.65;;;17.52;;
53253;SDS011;39148;53.332;6.922;2023-01-25T15:02:55;32.55;;;19.73;;
53253;SDS011;39148;53.332;6.922;2023-01-25T15:05:25;31.58;;;18.75;;
53253;SDS011;39148;53.332;6.922;2023-01-25T15:07:53;32.78;;;19.30;;
53253;SDS011;39148;53.332;6.922;2023-01-25T15:10:32;29.17;;;17.80;;
53253;SDS011;39148;53.332;6.922;2023-01-25T15:15:48;31.50;;;19.25;;
53253;SDS011;39148;53.332;6.922;2023-01-25T15:20:59;33.05;;;19.65;;
53253;SDS011;39148;53.332;6.922;2023-01-25T15:23:26;33.05;;;18.67;;
53253;SDS011;39148;53.332;6.922;2023-01-25T15:25:57;32.22;;;19.98;;
53253;SDS011;39148;53.332;6.922;2023-01-25T15:28:27;30.20;;;18.83;;
53253;SDS011;39148;53.332;6.922;2023-01-25T15:30:54;33.92;;;20.17;;
53253;SDS011;39148;53.332;6.922;2023-01-25T15:33:23;33.15;;;20.40;;
53253;SDS011;39148;53.332;6.922;2023-01-25T15:35:49;31.17;;;19.92;;
53253;SDS011;39148;53.332;6.922;2023-01-25T15:38:16;33.90;;;20.67;;
53253;SDS011;39148;53.332;6.922;2023-01-25T15:40:42;31.90;;;20.00;;
53253;SDS011;39148;53.332;6.922;2023-01-25T15:43:09;36.28;;;20.70;;
53253;SDS011;39148;53.332;6.922;2023-01-25T15:45:36;31.70;;;20.60;;
53253;SDS011;39148;53.332;6.922;2023-01-25T15:48:02;34.47;;;21.40;;
53253;SDS011;39148;53.332;6.922;2023-01-25T15:50:28;34.08;;;21.40;;
53253;SDS011;39148;53.332;6.922;2023-01-25T15:52:54;34.40;;;21.48;;
53253;SDS011;39148;53.332;6.922;2023-01-25T15:55:21;35.17;;;21.27;;
53253;SDS011;39148;53.332;6.922;2023-01-25T15:57:48;33.58;;;20.58;;
53253;SDS011;39148;53.332;6.922;2023-01-25T16:00:16;33.65;;;20.67;;
53253;SDS011;39148;53.332;6.922;2023-01-25T16:02:42;33.17;;;20.60;;
53253;SDS011;39148;53.332;6.922;2023-01-25T16:05:08;33.65;;;21.02;;
53253;SDS011;39148;53.332;6.922;2023-01-25T16:07:34;32.40;;;20.27;;
53253;SDS011;39148;53.332;6.922;2023-01-25T16:10:02;33.67;;;20.73;;
53253;SDS011;39148;53.332;6.922;2023-01-25T16:12:28;32.35;;;19.90;;
53253;SDS011;39148;53.332;6.922;2023-01-25T16:14:57;36.55;;;20.70;;
53253;SDS011;39148;53.332;6.922;2023-01-25T16:17:23;33.90;;;21.02;;
53253;SDS011;39148;53.332;6.922;2023-01-25T16:19:51;35.95;;;21.25;;
53253;SDS011;39148;53.332;6.922;2023-01-25T16:22:16;34.95;;;21.40;;
53253;SDS011;39148;53.332;6.922;2023-01-25T16:24:43;36.65;;;21.23;;
53253;SDS011;39148;53.332;6.922;2023-01-25T16:27:17;32.35;;;19.92;;